sensor_id;sensor_type;location;lat;lon;timestamp;P1;durP1;ratioP1;P2;durP2;ratioP2
69719;SDS011;56988;56.122;13.798;2024-02-23T00:00:49;31.33;;;9.15;;
69719;SDS011;56988;56.122;13.798;2024-02-23T00:02:49;25.95;;;9.88;;
69719;SDS011;56988;56.122;13.798;2024-02-23T00:03:49;26.98;;;9.18;;
69719;SDS011;56988;56.122;13.798;2024-02-23T00:04:50;21.63;;;8.88;;
69719;SDS011;56988;56.122;13.798;2024-02-23T00:05:50;24.42;;;9.65;;
69719;SDS011;56988;56.122;13.798;2024-02-23T00:06:50;27.30;;;10.67;;
69719;SDS011;56988;56.122;13.798;2024-02-23T00:07:50;27.77;;;9.15;;
69719;SDS011;56988;56.122;13.798;2024-02-23T00:08:51;26.17;;;10.10;;
69719;SDS011;56988;56.122;13.798;2024-02-23T00:09:53;26.10;;;8.07;;
69719;SDS011;56988;56.122;13.798;2024-02-23T00:10:53;17.77;;;8.27;;
69719;SDS011;56988;56.122;13.798;2024-02-23T00:12:54;26.02;;;9.57;;
69719;SDS011;56988;56.122;13.798;2024-02-23T00:13:54;23.53;;;8.77;;
69719;SDS011;56988;56.122;13.798;2024-02-23T00:15:54;13.25;;;5.28;;
69719;SDS011;56988;56.122;13.798;2024-02-23T00:16:55;18.13;;;8.17;;
69719;SDS011;56988;56.122;13.798;2024-02-23T00:17:56;15.95;;;7.18;;
69719;SDS011;56988;56.122;13.798;2024-02-23T00:18:56;18.60;;;7.43;;
69719;SDS011;56988;56.122;13.798;2024-02-23T00:19:56;18.23;;;7.33;;
69719;SDS011;56988;56.122;13.798;2024-02-23T00:20:57;12.20;;;6.37;;
69719;SDS011;56988;56.122;13.798;2024-02-23T00:21:57;14.50;;;6.50;;
69719;SDS011;56988;56.122;13.798;2024-02-23T00:22:59;15.13;;;7.60;;
69719;SDS011;56988;56.122;13.798;2024-02-23T00:23:59;15.93;;;6.78;;
69719;SDS011;56988;56.122;13.798;2024-02-23T00:24:59;11.13;;;6.10;;
69719;SDS011;56988;56.122;13.798;2024-02-23T00:25:59;11.87;;;5.27;;
69719;SDS011;56988;56.122;13.798;2024-02-23T00:27:00;14.13;;;6.35;;
69719;SDS011;56988;56.122;13.798;2024-02-23T00:28:00;11.93;;;6.37;;
69719;SDS011;56988;56.122;13.798;2024-02-23T00:29:00;12.70;;;6.18;;
69719;SDS011;56988;56.122;13.798;2024-02-23T00:30:00;13.10;;;5.63;;
69719;SDS011;56988;56.122;13.798;2024-02-23T00:31:01;10.77;;;5.90;;
69719;SDS011;56988;56.122;13.798;2024-02-23T00:32:01;9.70;;;5.47;;
69719;SDS011;56988;56.122;13.798;2024-02-23T00:33:02;12.07;;;5.93;;
69719;SDS011;56988;56.122;13.798;2024-02-23T00:34:02;9.75;;;5.07;;
69719;SDS011;56988;56.122;13.798;2024-02-23T00:35:02;10.57;;;5.17;;
69719;SDS011;56988;56.122;13.798;2024-02-23T00:36:02;11.57;;;4.97;;
69719;SDS011;56988;56.122;13.798;2024-02-23T00:37:03;8.63;;;5.45;;
69719;SDS011;56988;56.122;13.798;2024-02-23T00:39:03;9.37;;;4.73;;
69719;SDS011;56988;56.122;13.798;2024-02-23T00:40:04;11.10;;;5.63;;
69719;SDS011;56988;56.122;13.798;2024-02-23T00:41:04;8.35;;;5.28;;
69719;SDS011;56988;56.122;13.798;2024-02-23T00:42:05;9.43;;;5.15;;
69719;SDS011;56988;56.122;13.798;2024-02-23T00:43:05;10.05;;;3.80;;
69719;SDS011;56988;56.122;13.798;2024-02-23T00:44:05;8.25;;;4.75;;
69719;SDS011;56988;56.122;13.798;2024-02-23T00:46:09;8.40;;;4.23;;
69719;SDS011;56988;56.122;13.798;2024-02-23T00:47:09;6.75;;;4.22;;
69719;SDS011;56988;56.122;13.798;2024-02-23T00:48:09;8.48;;;4.03;;
69719;SDS011;56988;56.122;13.798;2024-02-23T00:49:09;7.10;;;4.30;;
69719;SDS011;56988;56.122;13.798;2024-02-23T00:50:09;6.17;;;4.10;;
69719;SDS011;56988;56.122;13.798;2024-02-23T00:51:10;6.45;;;3.40;;
69719;SDS011;56988;56.122;13.798;2024-02-23T00:52:10;6.68;;;3.75;;
69719;SDS011;56988;56.122;13.798;2024-02-23T00:53:11;5.68;;;3.30;;
69719;SDS011;56988;56.122;13.798;2024-02-23T00:54:11;4.35;;;2.83;;
69719;SDS011;56988;56.122;13.798;2024-02-23T00:55:11;5.72;;;3.45;;
69719;SDS011;56988;56.122;13.798;2024-02-23T00:56:11;5.78;;;3.55;;
69719;SDS011;56988;56.122;13.798;2024-02-23T00:58:13;5.83;;;2.90;;
69719;SDS011;56988;56.122;13.798;2024-02-23T00:59:13;6.13;;;3.13;;
69719;SDS011;56988;56.122;13.798;2024-02-23T01:00:13;4.22;;;2.90;;
69719;SDS011;56988;56.122;13.798;2024-02-23T01:01:14;4.47;;;3.00;;
69719;SDS011;56988;56.122;13.798;2024-02-23T01:03:14;4.15;;;2.45;;
69719;SDS011;56988;56.122;13.798;2024-02-23T01:04:15;4.07;;;2.70;;
69719;SDS011;56988;56.122;13.798;2024-02-23T01:05:15;3.08;;;2.50;;
69719;SDS011;56988;56.122;13.798;2024-02-23T01:06:15;3.63;;;2.27;;
69719;SDS011;56988;56.122;13.798;2024-02-23T01:07:16;3.25;;;2.53;;
69719;SDS011;56988;56.122;13.798;2024-02-23T01:08:17;2.63;;;2.10;;
69719;SDS011;56988;56.122;13.798;2024-02-23T01:10:20;3.53;;;2.40;;
69719;SDS011;56988;56.122;13.798;2024-02-23T01:11:20;3.20;;;2.20;;
69719;SDS011;56988;56.122;13.798;2024-02-23T01:12:20;4.03;;;2.67;;
69719;SDS011;56988;56.122;13.798;2024-02-23T01:13:21;2.37;;;1.90;;
69719;SDS011;56988;56.122;13.798;2024-02-23T01:14:21;3.33;;;2.23;;
69719;SDS011;56988;56.122;13.798;2024-02-23T01:15:21;2.57;;;1.90;;
69719;SDS011;56988;56.122;13.798;2024-02-23T01:17:21;2.93;;;1.80;;
69719;SDS011;56988;56.122;13.798;2024-02-23T01:18:21;3.00;;;2.27;;
69719;SDS011;56988;56.122;13.798;2024-02-23T01:19:22;2.27;;;2.00;;
69719;SDS011;56988;56.122;13.798;2024-02-23T01:20:23;2.95;;;1.98;;
69719;SDS011;56988;56.122;13.798;2024-02-23T01:21:23;2.33;;;1.87;;
69719;SDS011;56988;56.122;13.798;2024-02-23T01:22:24;2.38;;;1.80;;
69719;SDS011;56988;56.122;13.798;2024-02-23T01:23:24;2.80;;;1.80;;
69719;SDS011;56988;56.122;13.798;2024-02-23T01:24:24;1.97;;;1.63;;
69719;SDS011;56988;56.122;13.798;2024-02-23T01:25:27;2.95;;;1.95;;
69719;SDS011;56988;56.122;13.798;2024-02-23T01:26:27;3.23;;;1.40;;
69719;SDS011;56988;56.122;13.798;2024-02-23T01:28:27;2.17;;;1.67;;
69719;SDS011;56988;56.122;13.798;2024-02-23T01:29:28;2.75;;;1.45;;
69719;SDS011;56988;56.122;13.798;2024-02-23T01:30:28;2.50;;;2.03;;
69719;SDS011;56988;56.122;13.798;2024-02-23T01:31:28;3.50;;;1.63;;
69719;SDS011;56988;56.122;13.798;2024-02-23T01:33:29;2.25;;;1.77;;
69719;SDS011;56988;56.122;13.798;2024-02-23T01:34:29;4.95;;;1.80;;
69719;SDS011;56988;56.122;13.798;2024-02-23T01:36:30;3.65;;;2.08;;
69719;SDS011;56988;56.122;13.798;2024-02-23T01:38:30;1.87;;;1.67;;
69719;SDS011;56988;56.122;13.798;2024-02-23T01:39:32;3.60;;;2.05;;
69719;SDS011;56988;56.122;13.798;2024-02-23T01:40:32;2.97;;;2.00;;
69719;SDS011;56988;56.122;13.798;2024-02-23T01:42:33;2.63;;;2.17;;
69719;SDS011;56988;56.122;13.798;2024-02-23T01:43:33;2.10;;;1.88;;
69719;SDS011;56988;56.122;13.798;2024-02-23T01:44:34;2.95;;;1.92;;
69719;SDS011;56988;56.122;13.798;2024-02-23T01:45:34;2.73;;;2.00;;
69719;SDS011;56988;56.122;13.798;2024-02-23T01:46:34;3.67;;;2.40;;
69719;SDS011;56988;56.122;13.798;2024-02-23T01:48:35;2.57;;;1.90;;
69719;SDS011;56988;56.122;13.798;2024-02-23T01:49:35;2.93;;;2.03;;
69719;SDS011;56988;56.122;13.798;2024-02-23T01:51:36;2.43;;;1.90;;
69719;SDS011;56988;56.122;13.798;2024-02-23T01:52:36;2.08;;;1.88;;
69719;SDS011;56988;56.122;13.798;2024-02-23T01:53:37;4.15;;;2.40;;
69719;SDS011;56988;56.122;13.798;2024-02-23T01:54:37;4.40;;;2.20;;
69719;SDS011;56988;56.122;13.798;2024-02-23T01:55:39;2.70;;;2.08;;
69719;SDS011;56988;56.122;13.798;2024-02-23T01:56:40;2.80;;;2.20;;
69719;SDS011;56988;56.122;13.798;2024-02-23T01:57:40;2.53;;;2.15;;
69719;SDS011;56988;56.122;13.798;2024-02-23T01:58:41;4.87;;;2.23;;
69719;SDS011;56988;56.122;13.798;2024-02-23T02:00:41;3.87;;;1.97;;
69719;SDS011;56988;56.122;13.798;2024-02-23T02:01:42;3.23;;;2.03;;
69719;SDS011;56988;56.122;13.798;2024-02-23T02:03:43;2.27;;;1.70;;
69719;SDS011;56988;56.122;13.798;2024-02-23T02:04:43;2.00;;;1.60;;
69719;SDS011;56988;56.122;13.798;2024-02-23T02:05:43;2.95;;;1.98;;
69719;SDS011;56988;56.122;13.798;2024-02-23T02:07:44;2.80;;;1.87;;
69719;SDS011;56988;56.122;13.798;2024-02-23T02:08:47;2.72;;;2.13;;
69719;SDS011;56988;56.122;13.798;2024-02-23T02:09:47;2.58;;;2.25;;
69719;SDS011;56988;56.122;13.798;2024-02-23T02:10:47;2.53;;;2.20;;
69719;SDS011;56988;56.122;13.798;2024-02-23T02:12:49;2.17;;;1.83;;
69719;SDS011;56988;56.122;13.798;2024-02-23T02:13:49;2.90;;;1.90;;
69719;SDS011;56988;56.122;13.798;2024-02-23T02:14:49;3.20;;;2.10;;
69719;SDS011;56988;56.122;13.798;2024-02-23T02:16:49;2.30;;;1.97;;
69719;SDS011;56988;56.122;13.798;2024-02-23T02:17:50;2.23;;;1.80;;
69719;SDS011;56988;56.122;13.798;2024-02-23T02:18:50;2.57;;;1.53;;
69719;SDS011;56988;56.122;13.798;2024-02-23T02:20:51;2.40;;;1.70;;
69719;SDS011;56988;56.122;13.798;2024-02-23T02:21:52;2.75;;;1.80;;
69719;SDS011;56988;56.122;13.798;2024-02-23T02:22:52;2.15;;;1.83;;
69719;SDS011;56988;56.122;13.798;2024-02-23T02:23:52;1.70;;;1.60;;
69719;SDS011;56988;56.122;13.798;2024-02-23T02:25:56;1.70;;;1.40;;
69719;SDS011;56988;56.122;13.798;2024-02-23T02:26:57;1.63;;;1.50;;
69719;SDS011;56988;56.122;13.798;2024-02-23T02:27:57;1.20;;;1.03;;
69719;SDS011;56988;56.122;13.798;2024-02-23T02:29:57;1.30;;;1.00;;
69719;SDS011;56988;56.122;13.798;2024-02-23T02:30:58;1.38;;;1.20;;
69719;SDS011;56988;56.122;13.798;2024-02-23T02:31:58;1.27;;;1.15;;
69719;SDS011;56988;56.122;13.798;2024-02-23T02:32:58;1.33;;;1.23;;
69719;SDS011;56988;56.122;13.798;2024-02-23T02:33:58;2.23;;;1.40;;
69719;SDS011;56988;56.122;13.798;2024-02-23T02:34:58;2.30;;;1.40;;
69719;SDS011;56988;56.122;13.798;2024-02-23T02:35:59;1.50;;;1.40;;
69719;SDS011;56988;56.122;13.798;2024-02-23T02:37:00;1.23;;;1.10;;
69719;SDS011;56988;56.122;13.798;2024-02-23T02:38:00;1.75;;;1.30;;
69719;SDS011;56988;56.122;13.798;2024-02-23T02:39:00;2.23;;;1.60;;
69719;SDS011;56988;56.122;13.798;2024-02-23T02:40:00;2.30;;;1.90;;
69719;SDS011;56988;56.122;13.798;2024-02-23T02:41:01;1.67;;;1.50;;
69719;SDS011;56988;56.122;13.798;2024-02-23T02:42:01;1.92;;;1.75;;
69719;SDS011;56988;56.122;13.798;2024-02-23T02:43:02;2.33;;;1.80;;
69719;SDS011;56988;56.122;13.798;2024-02-23T02:44:02;3.75;;;2.38;;
69719;SDS011;56988;56.122;13.798;2024-02-23T02:45:02;4.20;;;1.80;;
69719;SDS011;56988;56.122;13.798;2024-02-23T02:46:03;3.38;;;2.38;;
69719;SDS011;56988;56.122;13.798;2024-02-23T02:47:03;2.75;;;2.10;;
69719;SDS011;56988;56.122;13.798;2024-02-23T02:48:03;4.40;;;2.85;;
69719;SDS011;56988;56.122;13.798;2024-02-23T02:49:03;4.45;;;2.85;;
69719;SDS011;56988;56.122;13.798;2024-02-23T02:50:04;6.40;;;2.67;;
69719;SDS011;56988;56.122;13.798;2024-02-23T02:51:06;4.57;;;3.33;;
69719;SDS011;56988;56.122;13.798;2024-02-23T02:52:07;5.65;;;3.17;;
69719;SDS011;56988;56.122;13.798;2024-02-23T02:53:08;4.80;;;2.80;;
69719;SDS011;56988;56.122;13.798;2024-02-23T02:54:08;4.40;;;3.33;;
69719;SDS011;56988;56.122;13.798;2024-02-23T02:56:09;4.67;;;3.67;;
69719;SDS011;56988;56.122;13.798;2024-02-23T02:57:09;4.67;;;3.50;;
69719;SDS011;56988;56.122;13.798;2024-02-23T02:59:09;4.20;;;3.43;;
69719;SDS011;56988;56.122;13.798;2024-02-23T03:00:10;4.35;;;3.50;;
69719;SDS011;56988;56.122;13.798;2024-02-23T03:01:11;4.75;;;3.47;;
69719;SDS011;56988;56.122;13.798;2024-02-23T03:02:12;4.18;;;3.65;;
69719;SDS011;56988;56.122;13.798;2024-02-23T03:03:12;8.20;;;3.55;;
69719;SDS011;56988;56.122;13.798;2024-02-23T03:05:13;4.30;;;3.57;;
69719;SDS011;56988;56.122;13.798;2024-02-23T03:06:13;4.87;;;3.40;;
69719;SDS011;56988;56.122;13.798;2024-02-23T03:07:13;6.55;;;3.80;;
69719;SDS011;56988;56.122;13.798;2024-02-23T03:08:13;4.57;;;3.50;;
69719;SDS011;56988;56.122;13.798;2024-02-23T03:09:14;6.93;;;3.60;;
69719;SDS011;56988;56.122;13.798;2024-02-23T03:10:14;4.63;;;3.53;;
69719;SDS011;56988;56.122;13.798;2024-02-23T03:12:14;4.27;;;3.33;;
69719;SDS011;56988;56.122;13.798;2024-02-23T03:13:15;5.28;;;3.63;;
69719;SDS011;56988;56.122;13.798;2024-02-23T03:14:15;6.33;;;3.63;;
69719;SDS011;56988;56.122;13.798;2024-02-23T03:15:18;4.97;;;3.33;;
69719;SDS011;56988;56.122;13.798;2024-02-23T03:16:18;4.33;;;3.47;;
69719;SDS011;56988;56.122;13.798;2024-02-23T03:17:18;3.78;;;3.42;;
69719;SDS011;56988;56.122;13.798;2024-02-23T03:18:19;4.68;;;3.28;;
69719;SDS011;56988;56.122;13.798;2024-02-23T03:19:19;5.20;;;3.22;;
69719;SDS011;56988;56.122;13.798;2024-02-23T03:20:22;4.00;;;3.10;;
69719;SDS011;56988;56.122;13.798;2024-02-23T03:21:22;3.43;;;3.07;;
69719;SDS011;56988;56.122;13.798;2024-02-23T03:23:22;4.22;;;2.83;;
69719;SDS011;56988;56.122;13.798;2024-02-23T03:24:23;5.38;;;2.70;;
69719;SDS011;56988;56.122;13.798;2024-02-23T03:25:23;5.47;;;2.70;;
69719;SDS011;56988;56.122;13.798;2024-02-23T03:26:23;5.10;;;2.60;;
69719;SDS011;56988;56.122;13.798;2024-02-23T03:27:27;6.93;;;2.33;;
69719;SDS011;56988;56.122;13.798;2024-02-23T03:28:27;3.33;;;2.65;;
69719;SDS011;56988;56.122;13.798;2024-02-23T03:29:27;2.80;;;1.80;;
69719;SDS011;56988;56.122;13.798;2024-02-23T03:30:30;8.07;;;1.88;;
69719;SDS011;56988;56.122;13.798;2024-02-23T03:31:31;3.17;;;1.70;;
69719;SDS011;56988;56.122;13.798;2024-02-23T03:33:36;3.13;;;1.48;;
69719;SDS011;56988;56.122;13.798;2024-02-23T03:34:36;1.80;;;1.40;;
69719;SDS011;56988;56.122;13.798;2024-02-23T03:35:37;1.50;;;1.40;;
69719;SDS011;56988;56.122;13.798;2024-02-23T03:37:37;4.63;;;1.50;;
69719;SDS011;56988;56.122;13.798;2024-02-23T03:38:37;2.47;;;1.30;;
69719;SDS011;56988;56.122;13.798;2024-02-23T03:39:38;2.10;;;1.30;;
69719;SDS011;56988;56.122;13.798;2024-02-23T03:40:38;3.95;;;1.42;;
69719;SDS011;56988;56.122;13.798;2024-02-23T03:41:38;4.10;;;1.20;;
69719;SDS011;56988;56.122;13.798;2024-02-23T03:43:39;3.50;;;1.13;;
69719;SDS011;56988;56.122;13.798;2024-02-23T03:45:41;2.97;;;1.00;;
69719;SDS011;56988;56.122;13.798;2024-02-23T03:46:41;3.60;;;0.97;;
69719;SDS011;56988;56.122;13.798;2024-02-23T03:48:42;2.97;;;1.00;;
69719;SDS011;56988;56.122;13.798;2024-02-23T03:49:42;3.50;;;1.10;;
69719;SDS011;56988;56.122;13.798;2024-02-23T03:51:42;3.40;;;1.10;;
69719;SDS011;56988;56.122;13.798;2024-02-23T03:52:42;3.60;;;0.80;;
69719;SDS011;56988;56.122;13.798;2024-02-23T03:54:43;2.33;;;1.10;;
69719;SDS011;56988;56.122;13.798;2024-02-23T03:55:43;3.97;;;1.00;;
69719;SDS011;56988;56.122;13.798;2024-02-23T03:57:43;2.67;;;0.80;;
69719;SDS011;56988;56.122;13.798;2024-02-23T03:59:53;2.70;;;0.90;;
69719;SDS011;56988;56.122;13.798;2024-02-23T04:00:53;3.42;;;0.77;;
69719;SDS011;56988;56.122;13.798;2024-02-23T04:01:53;1.03;;;0.70;;
69719;SDS011;56988;56.122;13.798;2024-02-23T04:02:54;2.03;;;0.90;;
69719;SDS011;56988;56.122;13.798;2024-02-23T04:03:54;1.33;;;1.00;;
69719;SDS011;56988;56.122;13.798;2024-02-23T04:04:54;4.10;;;0.90;;
69719;SDS011;56988;56.122;13.798;2024-02-23T04:05:54;2.97;;;0.90;;
69719;SDS011;56988;56.122;13.798;2024-02-23T04:06:55;1.80;;;0.90;;
69719;SDS011;56988;56.122;13.798;2024-02-23T04:07:55;4.40;;;0.90;;
69719;SDS011;56988;56.122;13.798;2024-02-23T04:08:55;1.88;;;0.63;;
69719;SDS011;56988;56.122;13.798;2024-02-23T04:09:55;3.10;;;0.73;;
69719;SDS011;56988;56.122;13.798;2024-02-23T04:10:55;3.40;;;1.00;;
69719;SDS011;56988;56.122;13.798;2024-02-23T04:11:56;5.00;;;0.90;;
69719;SDS011;56988;56.122;13.798;2024-02-23T04:12:57;1.50;;;1.10;;
69719;SDS011;56988;56.122;13.798;2024-02-23T04:13:57;3.20;;;0.90;;
69719;SDS011;56988;56.122;13.798;2024-02-23T04:14:58;1.63;;;0.70;;
69719;SDS011;56988;56.122;13.798;2024-02-23T04:15:58;3.08;;;1.27;;
69719;SDS011;56988;56.122;13.798;2024-02-23T04:17:01;3.92;;;0.90;;
69719;SDS011;56988;56.122;13.798;2024-02-23T04:18:01;1.17;;;0.60;;
69719;SDS011;56988;56.122;13.798;2024-02-23T04:19:01;3.95;;;1.17;;
69719;SDS011;56988;56.122;13.798;2024-02-23T04:20:05;0.63;;;0.63;;
69719;SDS011;56988;56.122;13.798;2024-02-23T04:21:06;3.90;;;0.90;;
69719;SDS011;56988;56.122;13.798;2024-02-23T04:22:06;0.83;;;0.50;;
69719;SDS011;56988;56.122;13.798;2024-02-23T04:23:09;2.78;;;0.60;;
69719;SDS011;56988;56.122;13.798;2024-02-23T04:24:09;2.70;;;0.70;;
69719;SDS011;56988;56.122;13.798;2024-02-23T04:26:10;4.07;;;0.70;;
69719;SDS011;56988;56.122;13.798;2024-02-23T04:27:10;3.33;;;0.70;;
69719;SDS011;56988;56.122;13.798;2024-02-23T04:28:10;0.30;;;0.30;;
69719;SDS011;56988;56.122;13.798;2024-02-23T04:29:10;0.97;;;0.40;;
69719;SDS011;56988;56.122;13.798;2024-02-23T04:30:11;2.10;;;0.65;;
69719;SDS011;56988;56.122;13.798;2024-02-23T04:31:11;3.00;;;0.60;;
69719;SDS011;56988;56.122;13.798;2024-02-23T04:32:12;3.17;;;0.50;;
69719;SDS011;56988;56.122;13.798;2024-02-23T04:33:12;4.67;;;0.60;;
69719;SDS011;56988;56.122;13.798;2024-02-23T04:35:12;2.90;;;0.60;;
69719;SDS011;56988;56.122;13.798;2024-02-23T04:36:12;1.67;;;0.60;;
69719;SDS011;56988;56.122;13.798;2024-02-23T04:38:13;2.83;;;0.50;;
69719;SDS011;56988;56.122;13.798;2024-02-23T04:39:13;1.90;;;0.50;;
69719;SDS011;56988;56.122;13.798;2024-02-23T04:40:13;0.80;;;0.40;;
69719;SDS011;56988;56.122;13.798;2024-02-23T04:41:14;1.48;;;0.60;;
69719;SDS011;56988;56.122;13.798;2024-02-23T04:43:14;8.27;;;1.17;;
69719;SDS011;56988;56.122;13.798;2024-02-23T04:44:14;2.67;;;0.60;;
69719;SDS011;56988;56.122;13.798;2024-02-23T04:45:14;1.10;;;0.60;;
69719;SDS011;56988;56.122;13.798;2024-02-23T04:47:15;0.88;;;0.40;;
69719;SDS011;56988;56.122;13.798;2024-02-23T04:49:15;4.03;;;0.53;;
69719;SDS011;56988;56.122;13.798;2024-02-23T04:50:16;3.17;;;0.70;;
69719;SDS011;56988;56.122;13.798;2024-02-23T04:52:16;3.30;;;0.45;;
69719;SDS011;56988;56.122;13.798;2024-02-23T04:54:16;0.52;;;0.40;;
69719;SDS011;56988;56.122;13.798;2024-02-23T04:55:17;3.65;;;0.70;;
69719;SDS011;56988;56.122;13.798;2024-02-23T04:56:17;2.40;;;0.52;;
69719;SDS011;56988;56.122;13.798;2024-02-23T04:57:17;1.25;;;0.57;;
69719;SDS011;56988;56.122;13.798;2024-02-23T04:58:17;2.85;;;0.70;;
69719;SDS011;56988;56.122;13.798;2024-02-23T04:59:18;5.40;;;0.75;;
69719;SDS011;56988;56.122;13.798;2024-02-23T05:00:18;2.75;;;0.68;;
69719;SDS011;56988;56.122;13.798;2024-02-23T05:01:19;2.92;;;0.57;;
69719;SDS011;56988;56.122;13.798;2024-02-23T05:02:19;2.72;;;1.02;;
69719;SDS011;56988;56.122;13.798;2024-02-23T05:03:19;3.35;;;0.57;;
69719;SDS011;56988;56.122;13.798;2024-02-23T05:04:20;2.47;;;0.57;;
69719;SDS011;56988;56.122;13.798;2024-02-23T05:05:20;6.80;;;0.93;;
69719;SDS011;56988;56.122;13.798;2024-02-23T05:06:21;3.75;;;1.95;;
69719;SDS011;56988;56.122;13.798;2024-02-23T05:07:22;3.43;;;1.13;;
69719;SDS011;56988;56.122;13.798;2024-02-23T05:09:24;1.52;;;0.50;;
69719;SDS011;56988;56.122;13.798;2024-02-23T05:10:24;3.47;;;0.63;;
69719;SDS011;56988;56.122;13.798;2024-02-23T05:11:24;3.25;;;0.80;;
69719;SDS011;56988;56.122;13.798;2024-02-23T05:12:24;3.35;;;0.63;;
69719;SDS011;56988;56.122;13.798;2024-02-23T05:13:25;2.55;;;0.47;;
69719;SDS011;56988;56.122;13.798;2024-02-23T05:14:26;2.42;;;0.73;;
69719;SDS011;56988;56.122;13.798;2024-02-23T05:15:26;3.47;;;0.50;;
69719;SDS011;56988;56.122;13.798;2024-02-23T05:16:26;4.07;;;0.63;;
69719;SDS011;56988;56.122;13.798;2024-02-23T05:17:27;8.53;;;0.90;;
69719;SDS011;56988;56.122;13.798;2024-02-23T05:18:27;2.27;;;0.67;;
69719;SDS011;56988;56.122;13.798;2024-02-23T05:19:27;0.50;;;0.50;;
69719;SDS011;56988;56.122;13.798;2024-02-23T05:20:27;7.22;;;0.57;;
69719;SDS011;56988;56.122;13.798;2024-02-23T05:21:28;2.22;;;0.75;;
69719;SDS011;56988;56.122;13.798;2024-02-23T05:22:28;2.45;;;0.60;;
69719;SDS011;56988;56.122;13.798;2024-02-23T05:24:28;1.97;;;0.60;;
69719;SDS011;56988;56.122;13.798;2024-02-23T05:25:28;3.93;;;0.57;;
69719;SDS011;56988;56.122;13.798;2024-02-23T05:26:29;2.30;;;0.70;;
69719;SDS011;56988;56.122;13.798;2024-02-23T05:28:29;1.20;;;0.60;;
69719;SDS011;56988;56.122;13.798;2024-02-23T05:29:29;2.90;;;0.60;;
69719;SDS011;56988;56.122;13.798;2024-02-23T05:30:29;3.40;;;0.60;;
69719;SDS011;56988;56.122;13.798;2024-02-23T05:31:44;6.80;;;0.80;;
69719;SDS011;56988;56.122;13.798;2024-02-23T05:32:45;1.38;;;0.77;;
69719;SDS011;56988;56.122;13.798;2024-02-23T05:33:45;6.47;;;0.80;;
69719;SDS011;56988;56.122;13.798;2024-02-23T05:34:45;2.72;;;0.45;;
69719;SDS011;56988;56.122;13.798;2024-02-23T05:35:46;4.28;;;0.80;;
69719;SDS011;56988;56.122;13.798;2024-02-23T05:36:48;1.35;;;0.70;;
69719;SDS011;56988;56.122;13.798;2024-02-23T05:37:50;1.00;;;0.50;;
69719;SDS011;56988;56.122;13.798;2024-02-23T05:38:50;4.33;;;0.67;;
69719;SDS011;56988;56.122;13.798;2024-02-23T05:39:51;1.48;;;0.50;;
69719;SDS011;56988;56.122;13.798;2024-02-23T05:40:51;4.22;;;0.50;;
69719;SDS011;56988;56.122;13.798;2024-02-23T05:41:51;5.30;;;0.60;;
69719;SDS011;56988;56.122;13.798;2024-02-23T05:42:51;2.50;;;0.80;;
69719;SDS011;56988;56.122;13.798;2024-02-23T05:43:52;1.77;;;0.50;;
69719;SDS011;56988;56.122;13.798;2024-02-23T05:44:52;1.53;;;0.63;;
69719;SDS011;56988;56.122;13.798;2024-02-23T05:45:52;1.20;;;0.52;;
69719;SDS011;56988;56.122;13.798;2024-02-23T05:46:54;1.17;;;0.45;;
69719;SDS011;56988;56.122;13.798;2024-02-23T05:47:54;3.03;;;0.80;;
69719;SDS011;56988;56.122;13.798;2024-02-23T05:48:54;2.83;;;0.70;;
69719;SDS011;56988;56.122;13.798;2024-02-23T05:49:54;4.70;;;0.73;;
69719;SDS011;56988;56.122;13.798;2024-02-23T05:50:55;0.70;;;0.50;;
69719;SDS011;56988;56.122;13.798;2024-02-23T05:52:55;3.60;;;0.70;;
69719;SDS011;56988;56.122;13.798;2024-02-23T05:53:55;3.65;;;1.20;;
69719;SDS011;56988;56.122;13.798;2024-02-23T05:54:56;5.07;;;0.95;;
69719;SDS011;56988;56.122;13.798;2024-02-23T05:55:56;2.00;;;0.70;;
69719;SDS011;56988;56.122;13.798;2024-02-23T05:56:56;5.20;;;0.83;;
69719;SDS011;56988;56.122;13.798;2024-02-23T05:58:57;6.78;;;1.00;;
69719;SDS011;56988;56.122;13.798;2024-02-23T05:59:57;3.08;;;0.80;;
69719;SDS011;56988;56.122;13.798;2024-02-23T06:00:57;6.07;;;0.88;;
69719;SDS011;56988;56.122;13.798;2024-02-23T06:01:58;2.55;;;0.70;;
69719;SDS011;56988;56.122;13.798;2024-02-23T06:02:58;1.27;;;0.53;;
69719;SDS011;56988;56.122;13.798;2024-02-23T06:03:58;3.47;;;0.60;;
69719;SDS011;56988;56.122;13.798;2024-02-23T06:04:58;3.10;;;0.60;;
69719;SDS011;56988;56.122;13.798;2024-02-23T06:05:58;2.80;;;0.70;;
69719;SDS011;56988;56.122;13.798;2024-02-23T06:06:59;5.55;;;1.33;;
69719;SDS011;56988;56.122;13.798;2024-02-23T06:07:59;0.83;;;0.67;;
69719;SDS011;56988;56.122;13.798;2024-02-23T06:08:59;2.53;;;0.50;;
69719;SDS011;56988;56.122;13.798;2024-02-23T06:10:00;3.05;;;1.55;;
69719;SDS011;56988;56.122;13.798;2024-02-23T06:11:00;3.55;;;0.60;;
69719;SDS011;56988;56.122;13.798;2024-02-23T06:12:01;4.97;;;1.17;;
69719;SDS011;56988;56.122;13.798;2024-02-23T06:13:01;2.10;;;0.63;;
69719;SDS011;56988;56.122;13.798;2024-02-23T06:14:01;2.63;;;0.80;;
69719;SDS011;56988;56.122;13.798;2024-02-23T06:15:02;3.03;;;0.67;;
69719;SDS011;56988;56.122;13.798;2024-02-23T06:16:02;4.28;;;0.60;;
69719;SDS011;56988;56.122;13.798;2024-02-23T06:17:03;1.63;;;0.50;;
69719;SDS011;56988;56.122;13.798;2024-02-23T06:18:04;3.95;;;0.95;;
69719;SDS011;56988;56.122;13.798;2024-02-23T06:19:04;5.10;;;0.77;;
69719;SDS011;56988;56.122;13.798;2024-02-23T06:20:04;3.40;;;0.90;;
69719;SDS011;56988;56.122;13.798;2024-02-23T06:21:12;3.15;;;0.75;;
69719;SDS011;56988;56.122;13.798;2024-02-23T06:22:12;3.75;;;0.80;;
69719;SDS011;56988;56.122;13.798;2024-02-23T06:23:13;3.75;;;0.65;;
69719;SDS011;56988;56.122;13.798;2024-02-23T06:24:13;5.30;;;0.80;;
69719;SDS011;56988;56.122;13.798;2024-02-23T06:25:13;7.07;;;1.20;;
69719;SDS011;56988;56.122;13.798;2024-02-23T06:26:14;3.57;;;0.70;;
69719;SDS011;56988;56.122;13.798;2024-02-23T06:27:14;5.22;;;0.98;;
69719;SDS011;56988;56.122;13.798;2024-02-23T06:28:14;8.87;;;1.30;;
69719;SDS011;56988;56.122;13.798;2024-02-23T06:29:14;6.70;;;1.97;;
69719;SDS011;56988;56.122;13.798;2024-02-23T06:30:15;7.05;;;1.25;;
69719;SDS011;56988;56.122;13.798;2024-02-23T06:31:15;3.33;;;1.00;;
69719;SDS011;56988;56.122;13.798;2024-02-23T06:33:16;3.50;;;1.08;;
69719;SDS011;56988;56.122;13.798;2024-02-23T06:34:16;2.92;;;0.95;;
69719;SDS011;56988;56.122;13.798;2024-02-23T06:35:17;5.57;;;0.90;;
69719;SDS011;56988;56.122;13.798;2024-02-23T06:36:17;8.73;;;1.58;;
69719;SDS011;56988;56.122;13.798;2024-02-23T06:37:18;6.05;;;1.20;;
69719;SDS011;56988;56.122;13.798;2024-02-23T06:38:18;4.27;;;1.30;;
69719;SDS011;56988;56.122;13.798;2024-02-23T06:39:18;9.13;;;1.03;;
69719;SDS011;56988;56.122;13.798;2024-02-23T06:40:19;12.15;;;2.85;;
69719;SDS011;56988;56.122;13.798;2024-02-23T06:41:20;6.53;;;1.23;;
69719;SDS011;56988;56.122;13.798;2024-02-23T06:42:20;11.27;;;0.93;;
69719;SDS011;56988;56.122;13.798;2024-02-23T06:43:21;3.58;;;1.52;;
69719;SDS011;56988;56.122;13.798;2024-02-23T06:44:21;9.57;;;1.83;;
69719;SDS011;56988;56.122;13.798;2024-02-23T06:45:21;7.40;;;1.40;;
69719;SDS011;56988;56.122;13.798;2024-02-23T06:46:25;5.97;;;1.00;;
69719;SDS011;56988;56.122;13.798;2024-02-23T06:47:26;4.78;;;1.02;;
69719;SDS011;56988;56.122;13.798;2024-02-23T06:48:26;6.00;;;1.30;;
69719;SDS011;56988;56.122;13.798;2024-02-23T06:49:26;11.57;;;1.35;;
69719;SDS011;56988;56.122;13.798;2024-02-23T06:50:27;5.57;;;1.27;;
69719;SDS011;56988;56.122;13.798;2024-02-23T06:51:27;8.73;;;1.50;;